createdAt,value
2022-11-28T00:00:02.635Z,93.69
2022-11-28T00:02:29.200Z,93.59
2022-11-28T00:04:55.685Z,93.94
2022-11-28T00:07:22.168Z,93.52
2022-11-28T00:09:48.843Z,93.78
2022-11-28T00:12:15.238Z,93.81
2022-11-28T00:14:41.851Z,93.72
2022-11-28T00:17:08.407Z,94.26
2022-11-28T00:19:34.842Z,93.95
2022-11-28T00:22:01.507Z,94.14
2022-11-28T00:24:27.919Z,93.89
2022-11-28T00:26:54.372Z,94.29
2022-11-28T00:29:20.907Z,94.09
2022-11-28T00:31:47.377Z,94.32
2022-11-28T00:34:15.206Z,94.19
2022-11-28T00:36:43.887Z,94.16
2022-11-28T00:39:10.310Z,94.39
2022-11-28T00:41:36.771Z,94.48
2022-11-28T00:44:03.247Z,94.39
2022-11-28T00:46:30.172Z,94.42
2022-11-28T00:48:58.026Z,94.74
2022-11-28T00:51:26.752Z,94.88
2022-11-28T00:53:54.305Z,94.82
2022-11-28T00:56:25.490Z,95.02
2022-11-28T00:58:52.259Z,94.84
2022-11-28T01:01:24.443Z,95.01
2022-11-28T01:03:51.737Z,94.80
2022-11-28T01:06:24.099Z,94.75
2022-11-28T01:08:50.573Z,95.20
2022-11-28T01:11:17.117Z,94.84
2022-11-28T01:13:43.487Z,94.86
2022-11-28T01:16:10.718Z,95.37
2022-11-28T01:18:37.624Z,95.29
2022-11-28T01:21:05.358Z,95.11
2022-11-28T01:23:31.788Z,95.24
2022-11-28T01:25:58.191Z,95.29
2022-11-28T01:28:24.633Z,95.58
2022-11-28T01:30:51.051Z,95.35
2022-11-28T01:33:17.443Z,95.59
2022-11-28T01:35:54.063Z,95.61
2022-11-28T01:38:20.420Z,95.66
2022-11-28T01:40:46.968Z,95.70
2022-11-28T01:43:13.375Z,95.76
2022-11-28T01:45:40.204Z,95.97
2022-11-28T01:48:09.054Z,96.14
2022-11-28T01:50:36.175Z,95.87
2022-11-28T01:53:05.194Z,96.27
2022-11-28T01:55:33.978Z,96.35
2022-11-28T01:58:00.838Z,96.42
2022-11-28T02:00:27.706Z,96.53
2022-11-28T02:03:01.574Z,96.21
2022-11-28T02:05:28.053Z,96.29
2022-11-28T02:07:54.454Z,96.14
2022-11-28T02:10:27.196Z,96.51
2022-11-28T02:13:06.910Z,96.48
2022-11-28T02:15:44.232Z,96.49
2022-11-28T02:18:32.183Z,96.68
2022-11-28T02:21:26.090Z,97.17
2022-11-28T02:24:13.707Z,97.04
2022-11-28T02:26:59.955Z,97.14
2022-11-28T02:29:41.247Z,97.30
2022-11-28T02:32:22.832Z,97.59
2022-11-28T02:34:58.196Z,97.85
2022-11-28T02:37:49.594Z,97.80
2022-11-28T02:40:21.881Z,98.26
2022-11-28T02:43:06.426Z,97.99
2022-11-28T02:46:02.683Z,98.03
2022-11-28T02:48:57.874Z,98.40
2022-11-28T02:51:31.880Z,98.69
2022-11-28T02:54:00.223Z,98.68
2022-11-28T02:56:26.787Z,98.81
2022-11-28T02:58:53.323Z,98.52
2022-11-28T03:01:24.279Z,98.51
2022-11-28T03:04:03.297Z,98.25
2022-11-28T03:06:46.796Z,98.19
2022-11-28T03:09:38.488Z,98.27
2022-11-28T03:12:37.703Z,98.03
2022-11-28T03:15:06.596Z,98.17
2022-11-28T03:17:48.052Z,98.16
2022-11-28T03:20:35.156Z,98.14
2022-11-28T03:23:18.867Z,98.23
2022-11-28T03:26:12.600Z,98.51
2022-11-28T03:28:44.952Z,98.74
2022-11-28T03:31:15.268Z,98.74
2022-11-28T03:33:48.551Z,98.56
2022-11-28T03:36:20.028Z,98.36
2022-11-28T03:38:50.711Z,98.40
2022-11-28T03:41:21.832Z,98.15
2022-11-28T03:43:53.937Z,98.14
2022-11-28T03:46:22.444Z,98.43
2022-11-28T03:48:52.354Z,98.34
2022-11-28T03:51:22.227Z,98.09
2022-11-28T03:54:08.515Z,98.10
2022-11-28T03:56:50.450Z,97.88
2022-11-28T03:59:21.574Z,98.02
2022-11-28T04:01:53.921Z,98.39
2022-11-28T04:04:52.430Z,98.17
2022-11-28T04:07:43.096Z,98.03
2022-11-28T04:10:28.155Z,98.20
2022-11-28T04:13:09.774Z,98.02
2022-11-28T04:15:58.702Z,98.72
2022-11-28T04:18:33.696Z,98.27
2022-11-28T04:21:21.487Z,98.17
2022-11-28T04:23:49.266Z,98.36
2022-11-28T04:26:20.478Z,97.88
2022-11-28T04:28:48.466Z,97.89
2022-11-28T04:31:16.900Z,97.79
2022-11-28T04:33:47.984Z,97.83
2022-11-28T04:36:16.212Z,98.44
2022-11-28T04:38:43.447Z,97.95
2022-11-28T04:41:14.143Z,97.93
2022-11-28T04:43:49.831Z,97.87
2022-11-28T04:46:19.917Z,97.96
2022-11-28T04:48:46.340Z,97.58
2022-11-28T04:52:06.367Z,97.32
2022-11-28T04:54:38.327Z,97.96
2022-11-28T04:57:18.250Z,98.02
2022-11-28T04:59:45.287Z,98.00
2022-11-28T05:02:13.654Z,97.97
2022-11-28T05:04:40.477Z,97.99
2022-11-28T05:07:08.248Z,98.03
2022-11-28T05:09:34.939Z,97.89
2022-11-28T05:12:01.523Z,97.73
2022-11-28T05:14:27.936Z,97.61
2022-11-28T05:16:54.398Z,98.00
2022-11-28T05:19:20.861Z,97.87
2022-11-28T05:21:47.303Z,97.91
2022-11-28T05:24:13.774Z,97.74
2022-11-28T05:26:40.206Z,97.59
2022-11-28T05:29:06.800Z,97.83
2022-11-28T05:31:33.704Z,98.12
2022-11-28T05:34:00.219Z,97.57
2022-11-28T05:36:26.651Z,97.82
2022-11-28T05:38:53.041Z,97.52
2022-11-28T05:41:21.765Z,97.39
2022-11-28T05:43:48.387Z,97.37
2022-11-28T05:46:14.960Z,97.52
2022-11-28T05:48:41.393Z,97.19
2022-11-28T05:51:08.181Z,97.28
2022-11-28T05:53:34.837Z,97.56
2022-11-28T05:56:10.447Z,97.44
2022-11-28T05:58:37.054Z,97.70
2022-11-28T06:01:11.362Z,97.51
2022-11-28T06:03:37.851Z,97.71
2022-11-28T06:06:04.725Z,97.80
2022-11-28T06:08:31.099Z,97.69
2022-11-28T06:10:58.246Z,97.68
2022-11-28T06:13:24.679Z,97.81
2022-11-28T06:15:51.086Z,97.48
2022-11-28T06:18:17.464Z,97.63
2022-11-28T06:20:43.867Z,97.50
2022-11-28T06:23:10.273Z,97.31
2022-11-28T06:25:36.647Z,97.47
2022-11-28T06:28:02.993Z,97.04
2022-11-28T06:30:29.346Z,97.21
2022-11-28T06:32:55.734Z,96.87
2022-11-28T06:35:22.193Z,96.61
2022-11-28T06:37:48.583Z,96.66
2022-11-28T06:40:15.076Z,96.56
2022-11-28T06:42:41.583Z,96.63
2022-11-28T06:45:09.165Z,96.57
2022-11-28T06:47:35.566Z,96.37
2022-11-28T06:50:01.906Z,96.22
2022-11-28T06:52:28.306Z,96.42
2022-11-28T06:54:55.052Z,96.36
2022-11-28T06:57:22.055Z,96.45
2022-11-28T06:59:49.210Z,96.27
2022-11-28T07:02:15.626Z,96.07
2022-11-28T07:04:42.080Z,96.32
2022-11-28T07:07:10.683Z,96.10
2022-11-28T07:09:40.335Z,95.99
2022-11-28T07:12:06.996Z,96.18
2022-11-28T07:14:33.677Z,96.22
2022-11-28T07:17:00.268Z,96.20
2022-11-28T07:19:26.784Z,96.04
2022-11-28T07:21:53.152Z,95.79
2022-11-28T07:24:19.572Z,95.80
2022-11-28T07:26:47.440Z,95.94
2022-11-28T07:29:15.915Z,95.95
2022-11-28T07:31:42.669Z,95.93
2022-11-28T07:34:10.151Z,95.91
2022-11-28T07:36:37.612Z,96.14
2022-11-28T07:39:05.710Z,95.97
2022-11-28T07:41:32.064Z,96.35
2022-11-28T07:44:00.180Z,96.04
2022-11-28T07:46:27.825Z,96.24
2022-11-28T07:48:54.327Z,96.35
2022-11-28T07:51:23.428Z,96.22
2022-11-28T07:53:49.883Z,96.09
2022-11-28T07:56:18.308Z,95.99
2022-11-28T07:58:45.929Z,95.88
2022-11-28T08:01:22.250Z,95.99
2022-11-28T08:03:49.182Z,96.30
2022-11-28T08:06:17.141Z,95.95
2022-11-28T08:08:44.028Z,95.85
2022-11-28T08:11:10.593Z,95.64
2022-11-28T08:13:38.702Z,95.84
2022-11-28T08:16:06.923Z,95.91
2022-11-28T08:18:34.884Z,95.98
2022-11-28T08:21:12.734Z,96.00
2022-11-28T08:23:40.000Z,96.04
2022-11-28T08:26:08.791Z,95.91
2022-11-28T08:28:35.498Z,95.89
2022-11-28T08:31:11.921Z,95.53
2022-11-28T08:33:38.724Z,95.75
2022-11-28T08:36:09.340Z,95.63
2022-11-28T08:38:37.128Z,95.46
2022-11-28T08:41:08.383Z,95.59
2022-11-28T08:43:36.739Z,95.58
2022-11-28T08:46:04.379Z,95.63
2022-11-28T08:48:31.307Z,95.69
2022-11-28T08:50:57.667Z,96.02
2022-11-28T08:53:24.172Z,96.31
2022-11-28T08:55:50.527Z,96.29
2022-11-28T08:58:16.995Z,95.92
2022-11-28T09:00:43.556Z,95.99
2022-11-28T09:03:15.233Z,95.77
2022-11-28T09:05:42.887Z,95.65
2022-11-28T09:08:11.785Z,95.83
2022-11-28T09:10:39.443Z,95.79
2022-11-28T09:13:06.341Z,95.82
2022-11-28T09:15:33.402Z,95.89
2022-11-28T09:17:59.919Z,95.95
2022-11-28T09:20:26.471Z,95.88
2022-11-28T09:22:52.961Z,95.86
2022-11-28T09:25:19.351Z,95.89
2022-11-28T09:27:45.756Z,96.05
2022-11-28T09:30:12.651Z,95.87
2022-11-28T09:32:39.010Z,95.57
2022-11-28T09:35:05.799Z,95.83
2022-11-28T09:37:32.304Z,95.81
2022-11-28T09:40:12.560Z,95.58
2022-11-28T09:42:43.640Z,95.69
2022-11-28T09:45:19.042Z,95.49
2022-11-28T09:47:57.915Z,95.58
2022-11-28T09:50:32.548Z,95.63
2022-11-28T09:53:14.154Z,95.18
2022-11-28T09:55:56.254Z,95.48
2022-11-28T09:58:43.312Z,95.55
2022-11-28T10:01:41.507Z,95.33
2022-11-28T10:04:35.837Z,95.17
2022-11-28T10:07:18.392Z,95.09
2022-11-28T10:10:03.934Z,95.34
2022-11-28T10:12:57.289Z,95.05
2022-11-28T10:15:50.499Z,95.22
2022-11-28T10:18:37.293Z,95.58
2022-11-28T10:21:22.985Z,95.25
2022-11-28T10:23:50.762Z,95.44
2022-11-28T10:26:22.648Z,95.46
2022-11-28T10:28:52.104Z,95.42
2022-11-28T10:31:36.946Z,95.37
2022-11-28T10:34:03.207Z,95.54
2022-11-28T10:37:05.082Z,95.58
2022-11-28T10:39:31.718Z,95.87
2022-11-28T10:42:28.424Z,95.74
2022-11-28T10:44:59.606Z,95.79
2022-11-28T10:47:55.422Z,95.58
2022-11-28T10:50:39.270Z,95.80
2022-11-28T10:53:39.806Z,95.83
2022-11-28T10:56:27.893Z,95.59
2022-11-28T10:59:01.118Z,95.55
2022-11-28T11:01:31.773Z,95.40
2022-11-28T11:03:58.249Z,95.35
2022-11-28T11:06:36.105Z,95.13
2022-11-28T11:09:09.321Z,95.08
2022-11-28T11:11:40.720Z,94.90
2022-11-28T11:14:09.835Z,94.84
2022-11-28T11:16:48.701Z,94.99
2022-11-28T11:19:27.142Z,95.08
2022-11-28T11:22:22.441Z,95.27
2022-11-28T11:25:05.791Z,94.96
2022-11-28T11:27:32.578Z,95.00
2022-11-28T11:29:59.122Z,94.88
2022-11-28T11:32:29.532Z,95.16
2022-11-28T11:34:57.381Z,94.86
2022-11-28T11:37:36.364Z,95.31
2022-11-28T11:40:27.182Z,95.26
2022-11-28T11:42:59.341Z,95.54
2022-11-28T11:45:30.359Z,95.49
2022-11-28T11:47:57.605Z,95.46
2022-11-28T11:50:26.399Z,95.31
2022-11-28T11:53:12.764Z,95.34
2022-11-28T11:55:49.308Z,95.30
2022-11-28T11:58:28.811Z,95.38
2022-11-28T12:00:57.695Z,95.23
2022-11-28T12:03:36.814Z,95.28
2022-11-28T12:06:29.372Z,95.47
2022-11-28T12:09:25.003Z,95.47
2022-11-28T12:12:06.512Z,95.04
2022-11-28T12:14:34.677Z,95.25
2022-11-28T12:17:47.907Z,95.35
2022-11-28T12:20:39.972Z,95.59
2022-11-28T12:23:40.734Z,95.30
2022-11-28T12:26:39.502Z,95.18
2022-11-28T12:29:30.942Z,95.36
2022-11-28T12:32:30.810Z,95.33
2022-11-28T12:35:27.735Z,95.32
2022-11-28T12:38:19.056Z,95.16
2022-11-28T12:40:45.420Z,95.22
2022-11-28T12:43:38.528Z,95.02
2022-11-28T12:46:14.086Z,95.12
2022-11-28T12:49:03.383Z,94.69
2022-11-28T12:51:54.025Z,94.70
2022-11-28T12:54:32.115Z,94.65
2022-11-28T12:57:29.887Z,94.78
2022-11-28T13:00:09.463Z,94.49
2022-11-28T13:02:54.953Z,94.46
2022-11-28T13:05:40.194Z,94.60
2022-11-28T13:08:22.609Z,94.63
2022-11-28T13:11:26.626Z,94.47
2022-11-28T13:13:59.184Z,94.73
2022-11-28T13:16:47.563Z,94.69
2022-11-28T13:19:29.217Z,94.80
2022-11-28T13:21:58.566Z,95.41
2022-11-28T13:24:31.632Z,95.30
2022-11-28T13:27:09.474Z,95.43
2022-11-28T13:29:42.011Z,95.35
2022-11-28T13:32:44.829Z,95.08
2022-11-28T13:35:16.319Z,95.12
2022-11-28T13:40:42.882Z,94.96
2022-11-28T13:43:25.539Z,94.70
2022-11-28T13:45:52.698Z,94.63
2022-11-28T13:49:05.956Z,94.32
2022-11-28T13:51:30.639Z,94.79
2022-11-28T13:54:22.771Z,94.55
2022-11-28T13:57:05.512Z,94.43
2022-11-28T13:59:32.610Z,94.92
2022-11-28T14:02:04.281Z,94.54
2022-11-28T14:04:32.137Z,94.46
2022-11-28T14:07:04.322Z,94.46
2022-11-28T14:09:52.632Z,94.57
2022-11-28T14:12:31.599Z,95.05
2022-11-28T14:15:26.209Z,94.63
2022-11-28T14:18:54.453Z,94.70
2022-11-28T14:21:12.040Z,94.68
2022-11-28T14:23:46.121Z,94.63
2022-11-28T14:26:27.931Z,94.66
2022-11-28T14:28:54.502Z,94.65
2022-11-28T14:31:32.888Z,94.57
2022-11-28T14:34:47.904Z,94.36
2022-11-28T14:40:59.734Z,94.60
2022-11-28T14:43:37.805Z,94.45
2022-11-28T14:46:24.573Z,94.26
2022-11-28T14:49:00.445Z,94.46
2022-11-28T14:51:45.683Z,94.33
2022-11-28T14:54:35.433Z,94.55
2022-11-28T14:57:02.090Z,94.53
2022-11-28T14:59:34.446Z,94.34
2022-11-28T15:02:13.187Z,94.29
2022-11-28T15:05:03.041Z,94.40
2022-11-28T15:07:54.692Z,94.48
2022-11-28T15:10:45.760Z,94.60
2022-11-28T15:13:24.338Z,94.73
2022-11-28T15:15:52.245Z,94.53
2022-11-28T15:18:20.360Z,94.79
2022-11-28T15:20:50.763Z,94.90
2022-11-28T15:23:31.282Z,94.67
2022-11-28T15:25:59.036Z,94.59
2022-11-28T15:28:28.552Z,94.29
2022-11-28T15:30:56.978Z,94.51
2022-11-28T15:33:25.459Z,94.49
2022-11-28T15:35:58.259Z,94.61
2022-11-28T15:38:25.805Z,94.57
2022-11-28T15:40:54.431Z,95.03
2022-11-28T15:43:21.040Z,94.82
2022-11-28T15:45:52.365Z,94.92
2022-11-28T15:48:39.750Z,94.90
2022-11-28T15:51:07.408Z,95.06
2022-11-28T15:53:34.186Z,94.85
2022-11-28T15:56:12.732Z,94.74
2022-11-28T15:58:42.560Z,95.05
2022-11-28T16:01:11.551Z,95.14
2022-11-28T16:03:58.960Z,94.95
2022-11-28T16:06:28.936Z,95.04
2022-11-28T16:08:59.771Z,95.44
2022-11-28T16:11:28.142Z,95.35
2022-11-28T16:13:56.250Z,95.24
2022-11-28T16:16:26.040Z,95.07
2022-11-28T16:18:58.059Z,94.87
2022-11-28T16:21:42.611Z,94.48
2022-11-28T16:24:31.205Z,95.05
2022-11-28T16:27:04.176Z,94.61
2022-11-28T16:29:34.856Z,94.70
2022-11-28T16:32:22.923Z,94.38
2022-11-28T16:34:51.188Z,94.66
2022-11-28T16:37:26.675Z,94.53
2022-11-28T16:40:23.049Z,94.26
2022-11-28T16:42:53.606Z,94.39
2022-11-28T16:45:29.532Z,94.57
2022-11-28T16:48:08.964Z,94.57
2022-11-28T16:50:36.396Z,94.89
2022-11-28T16:53:04.122Z,94.58
2022-11-28T16:55:30.395Z,94.82
2022-11-28T16:58:07.087Z,94.74
2022-11-28T17:00:34.908Z,94.68
2022-11-28T17:03:01.661Z,94.39
2022-11-28T17:05:28.134Z,94.26
2022-11-28T17:07:54.818Z,94.69
2022-11-28T17:10:21.342Z,94.76
2022-11-28T17:12:47.895Z,94.77
2022-11-28T17:15:18.595Z,95.02
2022-11-28T17:17:45.019Z,94.81
2022-11-28T17:20:12.499Z,95.13
2022-11-28T17:22:44.056Z,94.96
2022-11-28T17:25:16.100Z,95.08
2022-11-28T17:27:42.797Z,95.21
2022-11-28T17:30:19.486Z,95.07
2022-11-28T17:32:47.913Z,95.42
2022-11-28T17:35:17.374Z,95.72
2022-11-28T17:37:43.866Z,95.67
2022-11-28T17:40:28.923Z,95.95
2022-11-28T17:42:55.374Z,95.96
2022-11-28T17:45:22.167Z,95.87
2022-11-28T17:47:48.659Z,95.58
2022-11-28T17:50:15.073Z,95.39
2022-11-28T17:52:41.574Z,95.25
2022-11-28T17:55:08.346Z,95.45
2022-11-28T17:57:34.868Z,95.56
2022-11-28T18:00:01.301Z,95.61
2022-11-28T18:02:27.797Z,95.52
2022-11-28T18:04:54.246Z,95.31
2022-11-28T18:07:20.714Z,95.14
2022-11-28T18:09:47.819Z,95.18
2022-11-28T18:12:14.224Z,95.11
2022-11-28T18:14:40.596Z,94.96
2022-11-28T18:17:06.991Z,94.93
2022-11-28T18:19:33.398Z,95.10
2022-11-28T18:21:59.769Z,94.95
2022-11-28T18:24:26.175Z,94.88
2022-11-28T18:26:52.580Z,95.15
2022-11-28T18:29:18.988Z,95.25
2022-11-28T18:31:45.559Z,95.04
2022-11-28T18:34:11.999Z,95.04
2022-11-28T18:36:39.742Z,95.11
2022-11-28T18:39:09.302Z,95.40
2022-11-28T18:41:35.723Z,95.93
2022-11-28T18:44:04.714Z,96.02
2022-11-28T18:46:31.798Z,96.29
2022-11-28T18:48:58.520Z,96.52
2022-11-28T18:51:34.752Z,96.45
2022-11-28T18:54:04.522Z,96.88
2022-11-28T18:56:31.197Z,96.81
2022-11-28T18:58:58.079Z,96.86
2022-11-28T19:01:28.488Z,97.06
2022-11-28T19:03:57.483Z,96.50
2022-11-28T19:06:24.328Z,96.97
2022-11-28T19:08:56.436Z,96.83
2022-11-28T19:11:23.299Z,96.72
2022-11-28T19:13:51.599Z,96.50
2022-11-28T19:16:23.758Z,96.18
2022-11-28T19:18:50.447Z,96.39
2022-11-28T19:21:19.751Z,96.72
2022-11-28T19:23:47.146Z,96.71
2022-11-28T19:26:15.147Z,96.47
2022-11-28T19:28:41.866Z,96.61
2022-11-28T19:31:12.547Z,96.80
2022-11-28T19:33:39.278Z,97.03
2022-11-28T19:36:07.851Z,97.18
2022-11-28T19:38:35.295Z,97.24
2022-11-28T19:41:21.591Z,96.92
2022-11-28T19:43:48.700Z,97.06
2022-11-28T19:46:15.526Z,97.02
2022-11-28T19:48:42.425Z,96.87
2022-11-28T19:51:10.307Z,96.65
2022-11-28T19:53:38.098Z,96.68
2022-11-28T19:56:12.112Z,96.55
2022-11-28T19:58:38.762Z,96.41
2022-11-28T20:01:09.508Z,96.43
2022-11-28T20:03:37.360Z,96.55
2022-11-28T20:06:11.981Z,96.49
2022-11-28T20:08:38.838Z,96.68
2022-11-28T20:11:13.282Z,95.99
2022-11-28T20:13:41.211Z,96.28
2022-11-28T20:16:08.849Z,96.29
2022-11-28T20:18:40.905Z,96.19
2022-11-28T20:21:09.810Z,96.60
2022-11-28T20:23:44.345Z,96.83
2022-11-28T20:26:12.199Z,97.05
2022-11-28T20:28:39.650Z,97.06
2022-11-28T20:31:07.169Z,96.62
2022-11-28T20:33:33.750Z,96.45
2022-11-28T20:36:08.534Z,96.14
2022-11-28T20:38:35.333Z,96.10
2022-11-28T20:41:03.492Z,96.37
2022-11-28T20:43:31.247Z,96.28
2022-11-28T20:46:02.578Z,96.11
2022-11-28T20:48:29.002Z,96.34
2022-11-28T20:50:55.496Z,96.32
2022-11-28T20:53:26.552Z,96.25
2022-11-28T20:56:01.247Z,96.11
2022-11-28T20:58:27.658Z,96.36
2022-11-28T21:00:54.401Z,96.23
2022-11-28T21:03:21.130Z,96.15
2022-11-28T21:05:47.493Z,95.99
2022-11-28T21:08:13.855Z,96.20
2022-11-28T21:10:40.228Z,95.92
2022-11-28T21:13:07.167Z,96.68
2022-11-28T21:15:33.528Z,96.76
2022-11-28T21:18:00.002Z,96.96
2022-11-28T21:20:26.416Z,97.44
2022-11-28T21:22:52.820Z,97.55
2022-11-28T21:25:19.237Z,97.61
2022-11-28T21:27:46.061Z,97.49
2022-11-28T21:30:12.467Z,97.67
2022-11-28T21:32:38.814Z,97.51
2022-11-28T21:35:05.633Z,97.35
2022-11-28T21:37:32.304Z,97.26
2022-11-28T21:39:58.766Z,97.34
2022-11-28T21:42:25.118Z,96.65
2022-11-28T21:44:51.490Z,96.72
2022-11-28T21:47:17.875Z,96.71
2022-11-28T21:49:44.574Z,96.55
2022-11-28T21:52:12.110Z,96.41
2022-11-28T21:54:38.463Z,96.32
2022-11-28T21:57:04.823Z,96.39
2022-11-28T21:59:31.696Z,96.28
2022-11-28T22:01:58.168Z,96.98
2022-11-28T22:04:24.688Z,96.67
2022-11-28T22:06:51.222Z,96.39
2022-11-28T22:09:17.586Z,96.71
2022-11-28T22:11:43.986Z,96.48
2022-11-28T22:14:10.952Z,96.38
2022-11-28T22:16:37.351Z,96.23
2022-11-28T22:19:04.079Z,96.45
2022-11-28T22:24:17.539Z,96.57
2022-11-28T22:26:44.053Z,96.58
2022-11-28T22:29:11.062Z,96.49
2022-11-28T22:31:37.644Z,96.48
2022-11-28T22:34:04.079Z,96.73
2022-11-28T22:36:32.031Z,96.76
2022-11-28T22:38:58.907Z,96.73
2022-11-28T22:41:29.236Z,96.66
2022-11-28T22:43:59.305Z,96.45
2022-11-28T22:46:25.940Z,96.47
2022-11-28T22:48:52.297Z,96.43
2022-11-28T22:51:22.012Z,96.35
2022-11-28T22:53:52.694Z,96.26
2022-11-28T22:56:19.094Z,96.13
2022-11-28T22:58:45.615Z,96.17
2022-11-28T23:01:17.760Z,95.94
2022-11-28T23:03:45.302Z,96.05
2022-11-28T23:06:14.108Z,96.01
2022-11-28T23:08:40.598Z,95.74
2022-11-28T23:11:09.200Z,95.74
2022-11-28T23:13:36.653Z,95.94
2022-11-28T23:16:19.675Z,95.77
2022-11-28T23:18:48.160Z,95.85
2022-11-28T23:21:15.301Z,95.82
2022-11-28T23:23:41.922Z,95.99
2022-11-28T23:26:22.892Z,95.95
2022-11-28T23:28:49.484Z,96.06
2022-11-28T23:31:19.012Z,96.06
2022-11-28T23:33:45.725Z,95.88
2022-11-28T23:36:17.507Z,95.76
2022-11-28T23:38:45.085Z,95.57
2022-11-28T23:41:12.138Z,95.28
2022-11-28T23:43:38.830Z,95.38
2022-11-28T23:46:06.171Z,95.82
2022-11-28T23:48:32.778Z,95.68
2022-11-28T23:50:59.127Z,95.48
2022-11-28T23:53:25.783Z,95.73
2022-11-28T23:55:52.348Z,95.52
2022-11-28T23:58:19.265Z,95.43
